Time;durP1;ratioP1;P1;durP2;ratioP2;P2;SDS_P1;SDS_P2;PMS_P1;PMS_P2;Temp;Humidity;BMP_temperature;BMP_pressure;BME280_temperature;BME280_humidity;BME280_pressure;Samples;Min_cycle;Max_cycle;Signal;HPM_P1;HPM_P2
2021/07/20 00:01:07;;;;;;;16.40;12.55;;;;;;;19.50;62.01;100048.59;2209561;40;20105;-79
2021/07/20 00:02:40;;;;;;;16.30;12.20;;;;;;;19.48;61.88;100046.06;2200760;40;20039;-79
2021/07/20 00:04:21;;;;;;;16.42;12.70;;;;;;;19.41;62.09;100049.81;2198114;40;20108;-80
2021/07/20 00:05:55;;;;;;;14.50;11.07;;;;;;;19.43;61.93;100053.13;2197446;40;20034;-80
2021/07/20 00:07:26;;;;;;;14.45;11.75;;;;;;;19.45;61.95;100046.50;2200672;40;20038;-80
2021/07/20 00:08:58;;;;;;;14.90;12.02;;;;;;;19.41;62.20;100053.34;2208930;40;20650;-79
2021/07/20 00:10:33;;;;;;;17.08;12.25;;;;;;;19.37;62.31;100054.78;2207432;40;20033;-80
2021/07/20 00:12:05;;;;;;;15.68;11.10;;;;;;;19.36;62.20;100046.84;2203604;40;20031;-79
2021/07/20 00:13:39;;;;;;;15.70;11.45;;;;;;;19.38;62.24;100055.63;2203776;40;20381;-80
2021/07/20 00:15:16;;;;;;;12.20;9.40;;;;;;;19.42;62.27;100049.59;2209417;40;20058;-81
2021/07/20 00:16:48;;;;;;;13.90;9.85;;;;;;;19.47;62.18;100049.81;2209806;40;20062;-80
2021/07/20 00:20:12;;;;;;;14.75;11.65;;;;;;;19.32;62.12;100049.13;2209199;40;20428;-79
2021/07/20 00:21:45;;;;;;;16.33;11.95;;;;;;;19.30;62.30;100053.91;2204889;40;20038;-79
2021/07/20 00:23:18;;;;;;;14.43;11.90;;;;;;;19.25;62.30;100051.81;2203259;40;20042;-79
2021/07/20 00:24:50;;;;;;;16.60;11.30;;;;;;;19.18;62.59;100053.66;2203916;40;20039;-79
2021/07/20 00:26:23;;;;;;;14.93;10.77;;;;;;;19.16;62.92;100059.28;2203125;40;20038;-80
2021/07/20 00:27:55;;;;;;;18.70;11.48;;;;;;;19.21;62.27;100055.13;2202648;40;20041;-80
2021/07/20 00:29:27;;;;;;;16.10;11.98;;;;;;;19.16;62.57;100053.03;2199438;40;20415;-79
2021/07/20 00:30:59;;;;;;;13.38;10.27;;;;;;;19.16;62.71;100055.72;2199752;40;20389;-79
2021/07/20 00:32:30;;;;;;;15.57;10.55;;;;;;;19.18;62.46;100059.09;2203381;40;20042;-80
2021/07/20 00:34:02;;;;;;;22.08;11.55;;;;;;;19.17;62.55;100054.69;2203528;40;20054;-80
2021/07/20 00:35:34;;;;;;;19.65;11.57;;;;;;;19.17;62.29;100049.28;2199071;40;20027;-79
2021/07/20 00:37:08;;;;;;;15.57;10.88;;;;;;;19.20;62.50;100050.75;2197493;40;20120;-79
2021/07/20 00:38:40;;;;;;;13.65;10.43;;;;;;;19.21;62.11;100052.41;2200107;40;20661;-79
2021/07/20 00:40:15;;;;;;;14.93;9.82;;;;;;;19.21;62.08;100049.72;2197058;40;20047;-80
2021/07/20 00:41:47;;;;;;;14.57;10.27;;;;;;;19.21;62.19;100044.28;2204956;40;20426;-80
2021/07/20 00:43:19;;;;;;;13.82;10.45;;;;;;;19.22;61.93;100040.53;2207184;40;20042;-79
2021/07/20 00:44:51;;;;;;;13.85;10.27;;;;;;;19.22;61.81;100049.53;2202676;40;20042;-79
2021/07/20 00:46:24;;;;;;;16.83;10.85;;;;;;;19.16;61.73;100048.44;2203101;40;20041;-79
2021/07/20 00:47:57;;;;;;;15.95;10.30;;;;;;;19.17;61.76;100050.13;2204507;40;20033;-79
2021/07/20 00:49:28;;;;;;;15.68;10.75;;;;;;;19.15;61.87;100040.50;2203438;40;20050;-80
2021/07/20 00:51:01;;;;;;;19.42;11.52;;;;;;;19.07;61.80;100043.38;2204611;40;20035;-80
2021/07/20 00:52:34;;;;;;;15.80;10.00;;;;;;;19.01;62.25;100045.88;2204156;40;20070;-80
2021/07/20 00:54:06;;;;;;;17.08;10.68;;;;;;;19.04;62.31;100041.94;2203681;40;20043;-80
2021/07/20 00:55:39;;;;;;;14.23;10.00;;;;;;;19.06;61.89;100037.16;2204364;40;20186;-79
2021/07/20 00:57:11;;;;;;;15.60;10.27;;;;;;;19.06;62.07;100037.16;2203048;40;20046;-80
2021/07/20 00:58:43;;;;;;;14.50;11.13;;;;;;;19.00;62.37;100037.94;2203130;40;20037;-79
2021/07/20 01:00:18;;;;;;;17.05;11.45;;;;;;;18.92;62.22;100038.06;2203549;40;20065;-79
2021/07/20 01:01:50;;;;;;;16.45;11.93;;;;;;;18.82;62.41;100033.03;2204067;40;20041;-79
2021/07/20 01:03:22;;;;;;;14.43;10.90;;;;;;;18.79;62.72;100039.69;2210038;40;20050;-79
2021/07/20 01:04:53;;;;;;;18.50;11.20;;;;;;;18.75;62.96;100032.97;2205882;40;20030;-79
2021/07/20 01:06:26;;;;;;;13.35;9.85;;;;;;;18.69;62.92;100025.66;2204068;40;20090;-80
2021/07/20 01:07:59;;;;;;;18.63;10.60;;;;;;;18.68;63.20;100034.81;2203938;40;20041;-79
2021/07/20 01:09:32;;;;;;;16.95;10.93;;;;;;;18.65;63.18;100035.22;2208428;40;20045;-79
2021/07/20 01:11:03;;;;;;;17.20;10.13;;;;;;;18.63;63.27;100029.16;2206139;40;20556;-79
2021/07/20 01:12:38;;;;;;;15.52;10.20;;;;;;;18.65;63.23;100029.78;2204220;40;20034;-79
2021/07/20 01:14:10;;;;;;;14.75;10.68;;;;;;;18.63;63.02;100037.25;2199386;40;20181;-79
2021/07/20 01:15:44;;;;;;;15.38;10.20;;;;;;;18.62;62.91;100036.44;2205151;40;20042;-79
2021/07/20 01:17:18;;;;;;;15.43;9.80;;;;;;;18.70;62.70;100032.75;2203650;40;20062;-79
2021/07/20 01:18:52;;;;;;;13.18;9.50;;;;;;;18.76;62.33;100037.38;2206624;40;20031;-80
2021/07/20 01:20:26;;;;;;;13.18;9.43;;;;;;;18.76;62.80;100029.25;2206120;40;20034;-79
2021/07/20 01:22:00;;;;;;;17.48;10.30;;;;;;;18.76;62.58;100031.94;2202958;40;20035;-79
2021/07/20 01:23:35;;;;;;;13.73;9.55;;;;;;;18.72;62.53;100036.06;2209026;40;20041;-78
2021/07/20 01:25:11;;;;;;;15.80;10.45;;;;;;;18.63;62.88;100034.56;2205572;40;20046;-79
2021/07/20 01:26:45;;;;;;;14.10;9.65;;;;;;;18.52;62.96;100028.66;2197552;40;20070;-80
2021/07/20 01:28:18;;;;;;;14.90;10.48;;;;;;;18.52;63.14;100039.47;2201827;40;20054;-79
2021/07/20 01:29:51;;;;;;;15.10;10.48;;;;;;;18.48;63.46;100031.97;2210562;40;20053;-80
2021/07/20 01:31:27;;;;;;;14.20;9.70;;;;;;;18.49;63.49;100042.59;2209763;40;20071;-80
2021/07/20 01:33:01;;;;;;;13.95;10.52;;;;;;;18.52;63.36;100031.38;2203996;40;20140;-79
2021/07/20 01:34:34;;;;;;;16.73;10.60;;;;;;;18.47;63.26;100032.97;2203567;40;20034;-79
2021/07/20 01:36:08;;;;;;;15.43;10.25;;;;;;;18.45;63.72;100035.91;2207853;40;20030;-79
2021/07/20 01:37:41;;;;;;;13.50;9.48;;;;;;;18.45;63.63;100038.59;2209849;40;20041;-80
2021/07/20 01:39:15;;;;;;;16.13;11.15;;;;;;;18.51;63.65;100029.72;2202931;40;20112;-79
2021/07/20 01:40:52;;;;;;;14.82;10.48;;;;;;;18.47;63.59;100025.72;2208462;40;20313;-78
2021/07/20 01:42:26;;;;;;;16.17;10.98;;;;;;;18.37;63.88;100034.16;2208340;40;20037;-79
2021/07/20 01:44:03;;;;;;;15.02;9.90;;;;;;;18.37;63.81;100038.75;2209098;40;20045;-80
2021/07/20 01:45:37;;;;;;;15.85;10.43;;;;;;;18.37;64.00;100030.63;2210196;40;20064;-80
2021/07/20 01:47:09;;;;;;;14.50;10.48;;;;;;;18.29;64.29;100030.78;2199374;40;20055;-79
2021/07/20 01:48:44;;;;;;;16.00;10.80;;;;;;;18.29;64.22;100033.50;2205967;40;20034;-79
2021/07/20 01:50:20;;;;;;;14.02;10.18;;;;;;;18.29;64.43;100033.50;2209587;40;20045;-79
2021/07/20 01:51:52;;;;;;;15.20;10.88;;;;;;;18.24;64.19;100029.50;2209924;40;20041;-80
2021/07/20 01:53:25;;;;;;;16.90;10.77;;;;;;;18.28;64.19;100029.94;2206080;40;20047;-79
2021/07/20 01:55:00;;;;;;;15.80;9.75;;;;;;;18.21;64.37;100021.78;2206982;40;20305;-80
2021/07/20 01:56:31;;;;;;;15.75;9.98;;;;;;;18.23;64.16;100030.53;2208706;40;20038;-80
2021/07/20 01:58:05;;;;;;;14.50;10.40;;;;;;;18.26;64.34;100028.47;2211755;40;20064;-80
2021/07/20 01:59:39;;;;;;;17.08;10.30;;;;;;;18.26;64.43;100039.28;2210029;40;20071;-79
2021/07/20 02:01:16;;;;;;;14.10;9.95;;;;;;;18.30;64.44;100032.47;2207709;40;20097;-79
2021/07/20 02:02:59;;;;;;;16.55;10.52;;;;;;;18.33;64.59;100037.47;2209438;40;20026;-79
2021/07/20 02:04:42;;;;;;;14.20;10.00;;;;;;;18.30;64.42;100035.16;2209645;40;20068;-79
2021/07/20 02:08:28;;;;;;;19.08;11.05;;;;;;;18.31;64.88;100034.13;2206938;40;20046;-78
2021/07/20 02:10:02;;;;;;;17.50;11.98;;;;;;;18.27;65.36;100033.69;2208982;40;20038;-79
2021/07/20 02:11:36;;;;;;;15.60;10.63;;;;;;;18.21;65.70;100035.31;2214981;40;20089;-80
2021/07/20 02:13:14;;;;;;;16.08;11.38;;;;;;;18.21;65.38;100031.75;2215181;40;20031;-80
2021/07/20 02:14:48;;;;;;;14.32;9.68;;;;;;;18.17;65.52;100027.78;2212858;40;20042;-78
2021/07/20 02:16:26;;;;;;;13.73;10.07;;;;;;;18.19;65.82;100033.81;2206139;40;20038;-79
2021/07/20 02:18:02;;;;;;;15.38;11.38;;;;;;;18.15;65.91;100025.25;2206384;40;20050;-79
2021/07/20 02:19:45;;;;;;;16.58;11.98;;;;;;;18.12;65.81;100035.63;2208123;40;20037;-79
2021/07/20 02:21:21;;;;;;;18.90;12.05;;;;;;;18.08;66.11;100032.47;2213792;40;20026;-79
2021/07/20 02:22:59;;;;;;;15.15;11.35;;;;;;;18.06;66.16;100038.09;2209292;40;20034;-79
2021/07/20 02:24:36;;;;;;;14.65;10.75;;;;;;;18.02;66.39;100033.28;2215694;40;20068;-80
2021/07/20 02:26:20;;;;;;;17.38;12.65;;;;;;;17.97;66.43;100031.16;2208650;40;20045;-79
2021/07/20 02:27:54;;;;;;;18.27;10.98;;;;;;;17.90;67.01;100032.94;2208572;40;20038;-79
2021/07/20 02:29:27;;;;;;;16.67;10.60;;;;;;;17.88;66.95;100034.97;2211884;40;20323;-79
2021/07/20 02:31:07;;;;;;;17.33;11.40;;;;;;;17.87;66.81;100034.13;2208942;40;20053;-79
2021/07/20 02:32:42;;;;;;;14.80;11.07;;;;;;;17.88;66.63;100037.69;2209738;40;20039;-79
2021/07/20 02:34:17;;;;;;;16.08;10.82;;;;;;;17.88;66.73;100035.81;2199502;40;20039;-78
2021/07/20 02:35:50;;;;;;;17.05;11.07;;;;;;;17.88;67.04;100035.81;2202086;40;20045;-79
2021/07/20 02:37:23;;;;;;;13.32;9.70;;;;;;;17.89;66.82;100029.38;2204931;40;20065;-78
2021/07/20 02:38:58;;;;;;;13.15;10.10;;;;;;;17.88;67.08;100035.81;2201198;40;20044;-80
2021/07/20 02:40:30;;;;;;;16.88;10.95;;;;;;;17.88;67.16;100035.81;2205790;40;20038;-79
2021/07/20 02:42:06;;;;;;;13.63;9.98;;;;;;;17.89;66.90;100037.47;2204355;40;20093;-79
2021/07/20 02:43:39;;;;;;;14.73;10.35;;;;;;;17.88;66.87;100033.09;2206786;40;20041;-79
2021/07/20 02:45:13;;;;;;;15.50;11.48;;;;;;;17.88;66.80;100035.81;2209292;40;20355;-79
2021/07/20 02:46:45;;;;;;;16.20;11.20;;;;;;;17.82;66.95;100036.59;2202631;40;20042;-79
2021/07/20 02:48:19;;;;;;;18.05;10.88;;;;;;;17.81;67.04;100034.06;2202789;40;20054;-78
2021/07/20 02:49:52;;;;;;;16.65;11.55;;;;;;;17.78;67.10;100040.69;2205132;40;20034;-79
2021/07/20 02:51:26;;;;;;;18.20;11.55;;;;;;;17.72;67.54;100036.06;2201702;40;20038;-79
2021/07/20 02:52:59;;;;;;;15.00;10.95;;;;;;;17.70;67.48;100043.50;2203403;40;20038;-80
2021/07/20 02:54:31;;;;;;;15.95;11.23;;;;;;;17.70;67.71;100038.97;2201827;40;20080;-79
2021/07/20 02:56:05;;;;;;;14.60;10.35;;;;;;;17.71;67.55;100039.78;2203472;40;20059;-79
2021/07/20 02:57:38;;;;;;;15.20;10.57;;;;;;;17.70;67.41;100038.09;2206132;40;20038;-78
2021/07/20 02:59:13;;;;;;;15.48;10.63;;;;;;;17.69;67.58;100047.25;2205100;40;20074;-79
2021/07/20 03:00:46;;;;;;;19.13;11.60;;;;;;;17.67;67.46;100042.03;2203445;40;20053;-79
2021/07/20 03:02:19;;;;;;;15.85;11.18;;;;;;;17.61;67.55;100040.94;2201299;40;20050;-79
2021/07/20 03:03:51;;;;;;;16.73;11.77;;;;;;;17.56;67.73;100037.13;2205143;40;20034;-79
2021/07/20 03:05:22;;;;;;;14.95;10.70;;;;;;;17.56;67.91;100042.53;2203413;40;20061;-79
2021/07/20 03:06:59;;;;;;;15.55;11.68;;;;;;;17.59;68.04;100034.06;2202849;40;20672;-79
2021/07/20 03:08:34;;;;;;;15.30;10.93;;;;;;;17.55;67.76;100044.41;2202713;40;20057;-79
2021/07/20 03:10:08;;;;;;;15.75;11.27;;;;;;;17.49;68.09;100047.03;2203711;40;20129;-78
2021/07/20 03:11:44;;;;;;;15.38;10.75;;;;;;;17.47;68.49;100033.72;2197506;40;20043;-79
2021/07/20 03:13:18;;;;;;;17.15;11.07;;;;;;;17.45;68.56;100043.88;2202966;40;20034;-79
2021/07/20 03:14:51;;;;;;;18.75;11.00;;;;;;;17.43;68.72;100043.22;2195772;40;20061;-79
2021/07/20 03:16:24;;;;;;;15.80;11.10;;;;;;;17.38;68.66;100038.38;2201356;40;20159;-78
2021/07/20 03:17:57;;;;;;;16.17;10.70;;;;;;;17.37;68.74;100039.41;2200990;40;20046;-78
2021/07/20 03:19:30;;;;;;;16.13;11.40;;;;;;;17.41;68.51;100045.28;2201765;40;20061;-79
2021/07/20 03:21:02;;;;;;;17.00;10.98;;;;;;;17.43;68.54;100043.22;2203727;40;20116;-79
2021/07/20 03:22:34;;;;;;;16.35;10.05;;;;;;;17.44;68.65;100050.31;2202455;40;20034;-78
2021/07/20 03:24:08;;;;;;;21.58;12.07;;;;;;;17.42;68.51;100042.41;2200458;40;20060;-79
2021/07/20 03:25:42;;;;;;;16.23;11.00;;;;;;;17.35;68.53;100035.22;2201036;40;20088;-79
2021/07/20 03:27:14;;;;;;;15.32;10.18;;;;;;;17.35;68.72;100035.22;2205867;40;20127;-80
2021/07/20 03:28:50;;;;;;;18.48;12.23;;;;;;;17.31;68.35;100038.31;2208319;40;20034;-79
2021/07/20 03:30:24;;;;;;;16.55;10.85;;;;;;;17.21;68.89;100034.22;2201749;40;20414;-78
2021/07/20 03:31:56;;;;;;;18.27;11.55;;;;;;;17.22;68.66;100042.13;2201850;40;20109;-79
2021/07/20 03:33:31;;;;;;;20.00;12.50;;;;;;;17.24;68.97;100033.88;2201694;40;20045;-79
2021/07/20 03:35:02;;;;;;;15.95;10.77;;;;;;;17.24;68.70;100033.88;2195629;40;20619;-79
2021/07/20 03:36:36;;;;;;;18.42;12.57;;;;;;;17.20;68.68;100040.66;2200488;40;20034;-78
2021/07/20 03:38:09;;;;;;;15.00;11.35;;;;;;;17.14;68.99;100040.38;2206780;40;20042;-79
2021/07/20 03:39:41;;;;;;;14.95;10.45;;;;;;;17.14;69.05;100040.38;2206162;40;20027;-79
2021/07/20 03:41:15;;;;;;;15.20;10.02;;;;;;;17.15;69.15;100042.03;2200571;40;20125;-79
2021/07/20 03:42:48;;;;;;;15.70;10.60;;;;;;;17.19;68.78;100044.38;2201537;40;20425;-79
2021/07/20 03:44:23;;;;;;;15.35;10.70;;;;;;;17.17;68.72;100036.47;2205121;40;20038;-80
2021/07/20 03:45:57;;;;;;;14.15;10.55;;;;;;;17.17;69.08;100044.59;2207119;40;20050;-78
2021/07/20 03:47:29;;;;;;;17.80;12.02;;;;;;;17.15;69.14;100046.63;2202300;40;20124;-79
2021/07/20 03:49:00;;;;;;;22.70;13.60;;;;;;;17.11;69.21;100048.00;2202521;40;20413;-80
2021/07/20 03:50:33;;;;;;;16.67;11.27;;;;;;;17.09;69.35;100047.38;2205491;40;20050;-79
2021/07/20 03:52:05;;;;;;;16.65;11.23;;;;;;;17.09;69.16;100055.50;2208527;40;20041;-79
2021/07/20 03:53:38;;;;;;;19.15;12.35;;;;;;;17.12;69.05;100052.41;2203328;40;20055;-79
2021/07/20 03:55:11;;;;;;;17.35;11.85;;;;;;;17.10;69.31;100049.03;2200941;40;20381;-79
2021/07/20 03:56:45;;;;;;;18.85;13.10;;;;;;;17.04;69.30;100055.19;2203397;40;20038;-79
2021/07/20 03:58:18;;;;;;;18.83;12.50;;;;;;;16.93;69.37;100054.63;2206338;40;20314;-78
2021/07/20 03:59:55;;;;;;;17.17;10.68;;;;;;;16.93;69.96;100060.03;2206134;40;20117;-79
2021/07/20 04:01:32;;;;;;;16.30;12.02;;;;;;;16.97;69.75;100061.34;2202483;40;20118;-78
2021/07/20 04:03:23;;;;;;;14.85;10.90;;;;;;;17.03;69.35;100062.47;2201645;40;20348;-78
2021/07/20 04:04:58;;;;;;;19.20;11.88;;;;;;;17.03;69.40;100065.16;2203075;40;20037;-79
2021/07/20 04:06:32;;;;;;;16.67;11.32;;;;;;;17.05;69.47;100067.69;2206814;40;20118;-79
2021/07/20 04:08:06;;;;;;;20.05;11.35;;;;;;;17.03;69.54;100069.72;2210636;40;20570;-79
2021/07/20 04:09:38;;;;;;;14.38;10.20;;;;;;;17.05;69.48;100068.50;2208250;40;20345;-79
2021/07/20 04:11:14;;;;;;;16.10;11.10;;;;;;;17.08;69.61;100067.31;2202351;40;20031;-79
2021/07/20 04:12:47;;;;;;;15.35;10.07;;;;;;;17.09;69.52;100067.13;2200445;40;20299;-79
2021/07/20 04:14:18;;;;;;;13.60;9.90;;;;;;;17.11;69.77;100058.81;2205265;40;20538;-79
2021/07/20 04:15:54;;;;;;;18.25;12.13;;;;;;;17.15;69.34;100065.53;2207964;40;20044;-80
2021/07/20 04:17:27;;;;;;;18.83;12.32;;;;;;;17.17;69.18;100058.09;2201687;40;20075;-80
2021/07/20 04:18:59;;;;;;;16.55;11.65;;;;;;;17.18;69.44;100069.72;2198613;40;20045;-79
2021/07/20 04:20:30;;;;;;;15.00;11.23;;;;;;;17.10;69.65;100058.00;2204159;40;20030;-79
2021/07/20 04:22:03;;;;;;;18.88;12.65;;;;;;;17.07;69.71;100068.34;2202245;40;20042;-78
2021/07/20 04:23:36;;;;;;;17.40;11.45;;;;;;;17.03;70.00;100069.72;2204439;40;20062;-80
2021/07/20 04:25:11;;;;;;;16.98;11.10;;;;;;;17.06;69.91;100072.06;2203149;40;20038;-78
2021/07/20 04:26:45;;;;;;;16.80;11.40;;;;;;;17.10;69.63;100068.78;2205007;40;20101;-78
2021/07/20 04:28:20;;;;;;;15.23;10.48;;;;;;;17.11;69.85;100064.22;2207208;40;20389;-79
2021/07/20 04:29:53;;;;;;;15.82;11.52;;;;;;;17.13;69.57;100067.56;2206611;40;20054;-79
2021/07/20 04:31:30;;;;;;;18.52;11.43;;;;;;;17.12;69.64;100069.44;2204476;40;20053;-80
2021/07/20 04:33:01;;;;;;;17.40;11.75;;;;;;;17.12;69.56;100065.91;2201544;40;20042;-78
2021/07/20 04:34:35;;;;;;;17.42;12.30;;;;;;;17.15;69.73;100070.94;2201680;40;20120;-78
2021/07/20 04:36:08;;;;;;;15.10;10.63;;;;;;;17.18;69.77;100067.00;2196331;40;20061;-78
2021/07/20 04:37:43;;;;;;;16.73;10.85;;;;;;;17.21;69.44;100070.16;2207422;40;20224;-79
2021/07/20 04:39:14;;;;;;;15.90;10.95;;;;;;;17.24;69.45;100068.97;2211173;40;20135;-81
2021/07/20 04:40:48;;;;;;;15.18;10.50;;;;;;;17.22;69.15;100069.16;2209643;40;20034;-79
2021/07/20 04:42:20;;;;;;;16.20;10.35;;;;;;;17.25;69.19;100070.63;2203441;40;20077;-79
2021/07/20 04:43:54;;;;;;;14.80;9.98;;;;;;;17.26;68.86;100075.00;2203349;40;20039;-79
2021/07/20 04:45:28;;;;;;;24.75;11.65;;;;;;;17.29;68.78;100067.38;2203505;40;20066;-79
2021/07/20 04:47:02;;;;;;;18.10;11.43;;;;;;;17.35;68.80;100064.94;2204055;40;20042;-78
2021/07/20 04:48:36;;;;;;;14.77;11.05;;;;;;;17.37;68.27;100076.41;2210622;40;20078;-81
2021/07/20 04:50:10;;;;;;;15.20;11.60;;;;;;;17.35;68.53;100081.16;2201828;40;20055;-81
2021/07/20 04:51:53;;;;;;;23.42;13.02;;;;;;;17.29;68.82;100078.16;2191133;40;20032;-81
2021/07/20 04:53:26;;;;;;;15.77;11.90;;;;;;;17.23;69.11;100076.22;2206250;40;20101;-80
2021/07/20 04:54:59;;;;;;;18.20;11.20;;;;;;;17.20;69.12;100084.69;2204598;40;20030;-80
2021/07/20 04:56:33;;;;;;;19.75;12.05;;;;;;;17.18;69.08;100088.63;2207173;40;20158;-81
2021/07/20 04:58:09;;;;;;;22.52;13.27;;;;;;;17.22;68.94;100089.94;2209205;40;20220;-81
2021/07/20 04:59:49;;;;;;;19.33;11.23;;;;;;;17.26;69.11;100092.06;2208378;40;20367;-78
2021/07/20 05:01:24;;;;;;;17.17;12.10;;;;;;;17.31;69.00;100089.63;2208895;40;20049;-80
2021/07/20 05:03:00;;;;;;;17.35;10.02;;;;;;;17.31;68.68;100086.09;2208766;40;20042;-81
2021/07/20 05:04:33;;;;;;;20.45;10.93;;;;;;;17.35;68.83;100086.56;2210932;40;20076;-79
2021/07/20 05:06:07;;;;;;;17.92;12.38;;;;;;;17.38;68.31;100091.59;2208145;40;20045;-79
2021/07/20 05:07:53;;;;;;;20.20;10.70;;;;;;;17.43;68.15;100087.28;2205786;40;20042;-80
2021/07/20 05:09:35;;;;;;;17.60;10.40;;;;;;;17.42;68.12;100082.06;2202078;40;20039;-81
2021/07/20 05:11:14;;;;;;;19.17;10.48;;;;;;;17.42;68.23;100084.78;2203171;40;20392;-81
2021/07/20 05:12:45;;;;;;;22.75;11.10;;;;;;;17.44;68.02;100085.44;2214904;40;20042;-78
2021/07/20 05:14:19;;;;;;;15.13;10.45;;;;;;;17.45;68.25;100090.63;2213741;40;20058;-79
2021/07/20 05:16:06;;;;;;;17.58;11.30;;;;;;;17.50;67.92;100081.97;2213696;40;20042;-79
2021/07/20 05:17:41;;;;;;;19.33;11.02;;;;;;;17.51;67.88;100089.03;2212286;40;20045;-80
2021/07/20 05:19:15;;;;;;;17.15;10.95;;;;;;;17.55;67.75;100094.91;2214964;40;20022;-79
2021/07/20 05:20:49;;;;;;;16.33;11.27;;;;;;;17.58;67.94;100089.13;2215882;40;20041;-79
2021/07/20 05:22:23;;;;;;;17.15;10.93;;;;;;;17.57;67.96;100090.97;2210905;40;20034;-79
2021/07/20 05:23:58;;;;;;;17.30;11.68;;;;;;;17.59;67.61;100097.03;2214878;40;20046;-79
2021/07/20 05:25:30;;;;;;;16.65;11.63;;;;;;;17.57;67.93;100098.28;2210018;40;20035;-80
2021/07/20 05:27:12;;;;;;;16.77;12.10;;;;;;;17.53;67.78;100099.66;2209414;40;20043;-79
2021/07/20 05:28:44;;;;;;;21.77;11.02;;;;;;;17.49;68.32;100091.09;2204257;40;20034;-81
2021/07/20 05:30:19;;;;;;;17.52;10.55;;;;;;;17.52;68.09;100100.72;2204551;40;20038;-81
2021/07/20 05:31:52;;;;;;;18.30;11.82;;;;;;;17.58;67.85;100094.53;2206907;40;20100;-81
2021/07/20 05:33:25;;;;;;;17.52;12.20;;;;;;;17.62;67.69;100103.94;2216253;40;20042;-81
2021/07/20 05:35:00;;;;;;;14.98;11.15;;;;;;;17.65;67.56;100105.44;2216639;40;20030;-81
2021/07/20 05:36:46;;;;;;;16.15;10.90;;;;;;;17.70;67.51;100097.59;2204987;40;20042;-80
2021/07/20 05:38:30;;;;;;;18.08;11.40;;;;;;;17.77;67.20;100095.78;2204672;40;20035;-82
2021/07/20 05:40:40;;;;;;;16.00;10.60;;;;;;;17.87;66.42;100104.44;2204539;40;20050;-81
2021/07/20 05:44:30;;;;;;;20.20;11.80;;;;;;;17.91;65.68;100107.59;2202918;40;20034;-81
2021/07/20 05:46:59;;;;;;;19.02;12.50;;;;;;;17.76;65.84;100104.91;2210108;40;20026;-82
2021/07/20 05:48:44;;;;;;;20.75;12.73;;;;;;;17.68;65.88;100100.47;2206279;40;20037;-81
2021/07/20 05:50:19;;;;;;;17.15;11.23;;;;;;;17.52;66.21;100098.84;2209180;40;20031;-80
2021/07/20 05:51:53;;;;;;;16.92;11.73;;;;;;;17.51;66.30;100107.97;2212126;40;20061;-79
2021/07/20 05:53:28;;;;;;;16.75;10.95;;;;;;;17.41;66.31;100118.22;2212551;40;20048;-80
2021/07/20 05:55:01;;;;;;;16.98;11.25;;;;;;;17.37;66.60;100108.84;2199603;40;20039;-79
2021/07/20 05:56:41;;;;;;;18.00;10.68;;;;;;;17.39;66.39;100117.56;2207216;40;20085;-81
2021/07/20 05:58:14;;;;;;;16.33;10.85;;;;;;;17.48;66.53;100116.44;2210752;40;20080;-81
2021/07/20 05:59:46;;;;;;;14.32;10.15;;;;;;;17.56;66.26;100116.38;2212724;40;20038;-80
2021/07/20 06:01:22;;;;;;;15.75;10.35;;;;;;;17.68;65.76;100122.09;2215000;40;20052;-81
2021/07/20 06:02:56;;;;;;;15.57;9.38;;;;;;;17.74;65.58;100121.34;2203169;40;20041;-80
2021/07/20 06:04:31;;;;;;;15.70;9.80;;;;;;;17.80;65.42;100117.03;2204498;40;20031;-81
2021/07/20 06:06:05;;;;;;;16.33;9.80;;;;;;;17.87;65.16;100126.06;2204941;40;20050;-78
2021/07/20 06:07:37;;;;;;;17.92;10.55;;;;;;;17.91;65.01;100121.97;2203537;40;20061;-78
2021/07/20 06:09:09;;;;;;;19.42;11.40;;;;;;;17.87;64.85;100125.22;2204149;40;20041;-77
2021/07/20 06:10:42;;;;;;;14.88;9.52;;;;;;;17.88;65.00;100133.16;2202399;40;20043;-77
2021/07/20 06:12:16;;;;;;;15.07;10.15;;;;;;;17.96;64.74;100131.34;2200281;40;20454;-80
2021/07/20 06:13:48;;;;;;;15.52;10.63;;;;;;;17.99;64.51;100126.44;2206585;40;20402;-76
2021/07/20 06:15:20;;;;;;;14.35;9.32;;;;;;;18.03;64.40;100129.59;2201748;40;20417;-79
2021/07/20 06:16:52;;;;;;;15.63;9.70;;;;;;;18.08;64.42;100129.84;2207552;40;20070;-77
2021/07/20 06:18:25;;;;;;;16.38;9.07;;;;;;;18.14;63.84;100129.06;2207182;40;20045;-78
2021/07/20 06:19:56;;;;;;;13.52;8.65;;;;;;;18.19;63.66;100132.06;2202622;40;20041;-76
2021/07/20 06:21:33;;;;;;;13.63;8.57;;;;;;;18.24;63.53;100129.59;2201973;40;20071;-77
2021/07/20 06:23:06;;;;;;;13.38;9.35;;;;;;;18.30;63.37;100132.56;2201089;40;20438;-76
2021/07/20 06:24:43;;;;;;;13.30;8.48;;;;;;;18.38;63.08;100133.25;2201453;40;20035;-76
2021/07/20 06:26:17;;;;;;;14.50;9.25;;;;;;;18.45;62.93;100127.91;2205738;40;20037;-76
2021/07/20 06:27:50;;;;;;;13.25;8.77;;;;;;;18.49;62.81;100123.81;2207406;40;20041;-76
2021/07/20 06:29:24;;;;;;;15.27;9.35;;;;;;;18.56;62.80;100123.88;2200700;40;20053;-77
2021/07/20 06:30:56;;;;;;;15.77;10.60;;;;;;;18.60;62.37;100127.00;2202737;40;20078;-77
2021/07/20 06:32:31;;;;;;;15.00;9.25;;;;;;;18.59;62.25;100128.03;2202492;40;20053;-78
2021/07/20 06:34:03;;;;;;;16.15;8.40;;;;;;;18.59;62.12;100125.34;2201706;40;20469;-78
2021/07/20 06:35:35;;;;;;;14.15;10.02;;;;;;;18.63;62.04;100134.72;2201743;40;20457;-77
2021/07/20 06:37:10;;;;;;;12.27;9.02;;;;;;;18.66;61.75;100126.22;2207438;40;20155;-78
2021/07/20 06:38:41;;;;;;;11.93;8.45;;;;;;;18.68;61.60;100130.41;2203765;40;20501;-76
2021/07/20 06:40:15;;;;;;;15.07;8.98;;;;;;;18.72;61.50;100128.13;2203848;40;20046;-76
2021/07/20 06:41:50;;;;;;;19.52;12.10;;;;;;;18.79;61.09;100128.19;2199495;40;20070;-76
2021/07/20 06:43:23;;;;;;;15.60;9.43;;;;;;;18.80;61.27;100125.28;2195665;40;20399;-77
2021/07/20 06:44:56;;;;;;;14.18;9.63;;;;;;;18.85;61.02;100130.97;2200199;40;20055;-78
2021/07/20 06:46:29;;;;;;;14.63;9.10;;;;;;;18.89;60.88;100130.56;2197776;40;20042;-77
2021/07/20 06:48:00;;;;;;;12.52;8.00;;;;;;;18.85;61.12;100133.66;2199474;40;20060;-77
2021/07/20 06:49:35;;;;;;;13.82;9.43;;;;;;;18.90;60.77;100137.63;2198513;40;20066;-77
2021/07/20 06:51:07;;;;;;;16.83;9.02;;;;;;;18.86;60.75;100135.34;2200120;40;20411;-77
2021/07/20 06:52:42;;;;;;;16.88;9.48;;;;;;;18.69;61.06;100132.06;2197378;40;20095;-77
2021/07/20 06:54:14;;;;;;;15.98;8.52;;;;;;;18.68;61.31;100132.28;2196440;40;20050;-78
2021/07/20 06:55:49;;;;;;;14.65;9.38;;;;;;;18.82;61.26;100141.34;2198681;40;20445;-79
2021/07/20 06:57:25;;;;;;;15.52;10.38;;;;;;;18.92;60.75;100138.28;2200288;40;20043;-76
2021/07/20 06:58:58;;;;;;;14.48;9.68;;;;;;;19.05;60.58;100130.28;2199834;40;20360;-76
2021/07/20 07:00:30;;;;;;;18.45;9.00;;;;;;;19.18;60.09;100137.66;2199811;40;20057;-77
2021/07/20 07:02:03;;;;;;;14.35;10.25;;;;;;;19.28;59.82;100131.88;2203742;40;20057;-79
2021/07/20 07:03:39;;;;;;;19.38;11.07;;;;;;;19.25;59.83;100127.69;2199795;40;20031;-79
2021/07/20 07:05:14;;;;;;;14.23;9.75;;;;;;;19.18;60.01;100129.53;2198581;40;20050;-79
2021/07/20 07:06:48;;;;;;;18.52;9.88;;;;;;;19.13;60.44;100129.28;2199099;40;20023;-78
2021/07/20 07:08:23;;;;;;;25.67;14.90;;;;;;;19.17;60.25;100130.56;2205072;40;20085;-77
2021/07/20 07:09:55;;;;;;;20.63;11.48;;;;;;;19.23;60.08;100135.16;2195630;40;20031;-77
2021/07/20 07:11:29;;;;;;;15.00;9.68;;;;;;;19.36;60.31;100128.16;2196146;40;20046;-77
2021/07/20 07:13:05;;;;;;;19.45;10.07;;;;;;;19.51;59.64;100136.97;2199687;40;20065;-77
2021/07/20 07:14:37;;;;;;;13.00;8.40;;;;;;;19.61;59.43;100136.63;2204874;40;20058;-77
2021/07/20 07:16:11;;;;;;;12.35;7.43;;;;;;;19.77;58.83;100136.25;2199057;40;20034;-76
2021/07/20 07:17:46;;;;;;;13.77;9.05;;;;;;;19.93;58.62;100126.97;2207494;40;20042;-79